createdAt,value
2022-09-15T00:00:29.600Z,1.90
2022-09-15T00:02:56.399Z,1.70
2022-09-15T00:05:23.446Z,1.80
2022-09-15T00:07:50.172Z,1.60
2022-09-15T00:10:17.438Z,1.90
2022-09-15T00:12:44.561Z,2.10
2022-09-15T00:15:14.717Z,1.73
2022-09-15T00:17:42.988Z,1.83
2022-09-15T00:20:10.953Z,1.70
2022-09-15T00:22:38.143Z,2.00
2022-09-15T00:25:06.022Z,1.87
2022-09-15T00:27:33.632Z,2.07
2022-09-15T00:30:00.724Z,2.13
2022-09-15T00:32:28.029Z,2.20
2022-09-15T00:34:54.764Z,1.87
2022-09-15T00:37:21.749Z,1.80
2022-09-15T00:39:49.331Z,1.37
2022-09-15T00:42:18.300Z,1.70
2022-09-15T00:45:00.020Z,2.50
2022-09-15T00:47:39.891Z,1.43
2022-09-15T00:50:13.576Z,1.60
2022-09-15T00:52:58.863Z,1.67
2022-09-15T00:55:35.979Z,2.40
2022-09-15T00:58:10.634Z,1.40
2022-09-15T01:00:39.642Z,2.43
2022-09-15T01:03:06.406Z,1.37
2022-09-15T01:05:38.157Z,1.43
2022-09-15T01:08:14.147Z,1.73
2022-09-15T01:10:41.470Z,1.87
2022-09-15T01:13:11.880Z,1.83
2022-09-15T01:15:56.045Z,1.60
2022-09-15T01:18:43.044Z,1.67
2022-09-15T01:21:22.059Z,1.77
2022-09-15T01:24:08.967Z,1.30
2022-09-15T01:26:58.952Z,1.60
2022-09-15T01:29:37.720Z,1.83
2022-09-15T01:32:37.166Z,1.87
2022-09-15T01:35:36.108Z,1.80
2022-09-15T01:38:10.307Z,1.47
2022-09-15T01:40:46.813Z,1.50
2022-09-15T01:43:16.954Z,1.60
2022-09-15T01:45:46.514Z,2.00
2022-09-15T01:48:13.889Z,1.80
2022-09-15T01:50:48.966Z,1.37
2022-09-15T01:53:19.484Z,1.80
2022-09-15T01:56:02.767Z,1.63
2022-09-15T01:58:29.725Z,1.63
2022-09-15T02:01:05.642Z,1.90
2022-09-15T02:03:44.697Z,1.80
2022-09-15T02:06:27.567Z,1.67
2022-09-15T02:09:02.971Z,1.70
2022-09-15T02:11:30.447Z,1.87
2022-09-15T02:14:20.838Z,1.50
2022-09-15T02:16:52.699Z,1.60
2022-09-15T02:19:32.919Z,1.97
2022-09-15T02:22:12.636Z,1.57
2022-09-15T02:24:44.963Z,1.87
2022-09-15T02:27:25.013Z,1.90
2022-09-15T02:29:54.942Z,1.40
2022-09-15T02:32:25.437Z,1.37
2022-09-15T02:34:55.498Z,1.87
2022-09-15T02:37:24.299Z,1.80
2022-09-15T02:39:56.433Z,1.67
2022-09-15T02:42:25.472Z,2.53
2022-09-15T02:44:52.679Z,1.13
2022-09-15T02:47:19.926Z,1.50
2022-09-15T02:49:46.756Z,2.10
2022-09-15T02:52:13.947Z,1.70
2022-09-15T02:54:40.663Z,1.80
2022-09-15T02:57:07.591Z,1.90
2022-09-15T02:59:52.780Z,2.20
2022-09-15T03:02:20.456Z,2.20
2022-09-15T03:04:48.137Z,1.87
2022-09-15T03:07:15.843Z,1.83
2022-09-15T03:09:42.531Z,2.00
2022-09-15T03:12:09.619Z,2.00
2022-09-15T03:14:36.425Z,2.50
2022-09-15T03:17:04.958Z,2.17
2022-09-15T03:19:31.961Z,1.70
2022-09-15T03:21:58.761Z,1.80
2022-09-15T03:24:25.488Z,2.00
2022-09-15T03:26:52.208Z,1.83
2022-09-15T03:29:18.947Z,2.00
2022-09-15T03:31:45.741Z,2.17
2022-09-15T03:34:12.482Z,1.90
2022-09-15T03:36:39.319Z,1.70
2022-09-15T03:39:06.024Z,1.93
2022-09-15T03:41:32.800Z,2.07
2022-09-15T03:43:59.841Z,2.40
2022-09-15T03:46:27.282Z,2.37
2022-09-15T03:48:54.034Z,2.23
2022-09-15T03:51:21.996Z,1.73
2022-09-15T03:53:48.715Z,2.00
2022-09-15T03:56:27.473Z,2.20
2022-09-15T03:58:54.699Z,2.00
2022-09-15T04:01:23.857Z,2.13
2022-09-15T04:03:51.587Z,1.73
2022-09-15T04:06:20.849Z,2.53
2022-09-15T04:08:48.664Z,1.97
2022-09-15T04:11:16.887Z,2.00
2022-09-15T04:13:43.835Z,2.37
2022-09-15T04:16:13.496Z,4.03
2022-09-15T04:19:14.483Z,2.23
2022-09-15T04:21:41.334Z,2.50
2022-09-15T04:24:08.142Z,1.87
2022-09-15T04:26:37.141Z,1.90
2022-09-15T04:29:06.132Z,2.20
2022-09-15T04:31:33.705Z,2.90
2022-09-15T04:34:00.699Z,2.33
2022-09-15T04:36:28.867Z,1.90
2022-09-15T04:38:56.434Z,2.30
2022-09-15T04:41:23.885Z,1.67
2022-09-15T04:43:50.892Z,1.80
2022-09-15T04:46:18.542Z,2.20
2022-09-15T04:48:46.395Z,1.93
2022-09-15T04:51:22.153Z,2.07
2022-09-15T04:53:49.343Z,2.00
2022-09-15T04:56:19.007Z,2.07
2022-09-15T04:58:48.995Z,2.90
2022-09-15T05:01:21.947Z,2.10
2022-09-15T05:03:49.091Z,2.00
2022-09-15T05:06:18.088Z,2.17
2022-09-15T05:08:48.059Z,3.43
2022-09-15T05:11:15.348Z,2.97
2022-09-15T05:13:42.261Z,2.17
2022-09-15T05:16:15.133Z,1.90
2022-09-15T05:18:43.680Z,2.00
2022-09-15T05:21:13.209Z,2.67
2022-09-15T05:23:40.161Z,1.70
2022-09-15T05:26:09.379Z,2.37
2022-09-15T05:28:37.221Z,1.77
2022-09-15T05:31:10.293Z,1.17
2022-09-15T05:33:37.721Z,1.63
2022-09-15T05:36:07.116Z,1.73
2022-09-15T05:38:34.267Z,1.50
2022-09-15T05:41:19.880Z,1.60
2022-09-15T05:43:47.922Z,1.40
2022-09-15T05:46:15.991Z,1.90
2022-09-15T05:48:42.800Z,2.03
2022-09-15T05:51:09.536Z,1.80
2022-09-15T05:53:37.725Z,2.00
2022-09-15T05:56:11.929Z,1.43
2022-09-15T05:58:40.640Z,1.90
2022-09-15T06:01:11.047Z,1.30
2022-09-15T06:03:37.772Z,1.77
2022-09-15T06:06:06.284Z,1.17
2022-09-15T06:08:40.508Z,1.77
2022-09-15T06:11:13.290Z,2.00
2022-09-15T06:13:40.279Z,1.27
2022-09-15T06:16:10.037Z,1.60
2022-09-15T06:18:37.812Z,1.70
2022-09-15T06:21:07.059Z,1.40
2022-09-15T06:23:33.813Z,1.80
2022-09-15T06:26:07.714Z,1.93
2022-09-15T06:28:34.487Z,1.77
2022-09-15T06:31:01.498Z,1.80
2022-09-15T06:33:28.228Z,1.97
2022-09-15T06:35:54.979Z,2.00
2022-09-15T06:38:21.709Z,2.00
2022-09-15T06:40:56.367Z,2.10
2022-09-15T06:43:23.180Z,1.77
2022-09-15T06:45:50.366Z,1.63
2022-09-15T06:48:24.456Z,1.90
2022-09-15T06:50:55.919Z,1.90
2022-09-15T06:53:22.665Z,1.50
2022-09-15T06:55:49.720Z,1.93
2022-09-15T06:58:16.756Z,1.63
2022-09-15T07:00:43.758Z,1.37
2022-09-15T07:03:10.617Z,1.43
2022-09-15T07:05:37.421Z,1.70
2022-09-15T07:08:04.300Z,1.43
2022-09-15T07:10:31.061Z,1.60
2022-09-15T07:12:58.924Z,1.47
2022-09-15T07:15:27.388Z,1.17
2022-09-15T07:17:54.269Z,1.23
2022-09-15T07:20:21.579Z,1.30
2022-09-15T07:22:48.364Z,1.57
2022-09-15T07:25:15.114Z,1.17
2022-09-15T07:27:42.071Z,1.10
2022-09-15T07:30:09.213Z,1.60
2022-09-15T07:32:36.034Z,1.50
2022-09-15T07:35:03.402Z,1.30
2022-09-15T07:37:30.110Z,1.07
2022-09-15T07:39:56.806Z,1.50
2022-09-15T07:42:23.531Z,2.10
2022-09-15T07:44:50.180Z,1.63
2022-09-15T07:47:16.872Z,1.87
2022-09-15T07:49:43.871Z,1.10
2022-09-15T07:52:10.518Z,1.50
2022-09-15T07:54:37.271Z,1.60
2022-09-15T07:57:06.343Z,1.37
2022-09-15T07:59:33.139Z,1.20
2022-09-15T08:01:59.869Z,1.30
2022-09-15T08:04:26.637Z,1.20
2022-09-15T08:06:53.301Z,1.10
2022-09-15T08:09:20.572Z,1.43
2022-09-15T08:11:47.235Z,1.30
2022-09-15T08:14:14.181Z,1.53
2022-09-15T08:16:40.885Z,1.70
2022-09-15T08:19:07.719Z,1.50
2022-09-15T08:21:34.393Z,1.57
2022-09-15T08:24:01.433Z,1.20
2022-09-15T08:26:29.369Z,1.17
2022-09-15T08:28:56.228Z,1.07
2022-09-15T08:31:24.439Z,1.40
2022-09-15T08:33:52.995Z,1.50
2022-09-15T08:36:20.289Z,1.20
2022-09-15T08:38:47.642Z,1.60
2022-09-15T08:41:30.711Z,1.63
2022-09-15T08:44:19.439Z,1.33
2022-09-15T08:47:14.677Z,1.30
2022-09-15T08:50:01.887Z,1.63
2022-09-15T08:52:52.807Z,0.80
2022-09-15T08:55:41.594Z,1.50
2022-09-15T08:58:21.754Z,1.80
2022-09-15T09:00:53.663Z,1.37
2022-09-15T09:03:33.058Z,1.40
2022-09-15T09:06:14.923Z,1.00
2022-09-15T09:09:05.130Z,1.30
2022-09-15T09:12:00.224Z,1.40
2022-09-15T09:14:44.903Z,1.40
2022-09-15T09:17:47.674Z,1.17
2022-09-15T09:20:22.890Z,1.33
2022-09-15T09:22:52.261Z,1.40
2022-09-15T09:25:27.594Z,1.63
2022-09-15T09:27:58.105Z,1.30
2022-09-15T09:30:27.719Z,1.13
2022-09-15T09:33:04.926Z,1.00
2022-09-15T09:35:51.695Z,1.00
2022-09-15T09:38:22.831Z,1.00
2022-09-15T09:40:50.593Z,1.73
2022-09-15T09:43:17.657Z,1.20
2022-09-15T09:45:45.926Z,1.10
2022-09-15T09:48:18.865Z,1.30
2022-09-15T09:50:46.124Z,1.20
2022-09-15T09:53:32.924Z,1.27
2022-09-15T09:56:11.990Z,1.30
2022-09-15T09:58:38.977Z,1.40
2022-09-15T10:01:16.035Z,1.03
2022-09-15T10:03:43.884Z,1.10
2022-09-15T10:06:24.165Z,1.80
2022-09-15T10:09:08.895Z,0.90
2022-09-15T10:11:50.725Z,1.10
2022-09-15T10:14:35.617Z,1.10
2022-09-15T10:17:37.898Z,1.57
2022-09-15T10:20:19.338Z,1.43
2022-09-15T10:22:46.107Z,1.40
2022-09-15T10:25:21.454Z,1.67
2022-09-15T10:28:17.805Z,1.50
2022-09-15T10:31:03.822Z,0.83
2022-09-15T10:33:41.869Z,1.40
2022-09-15T10:36:15.341Z,1.00
2022-09-15T10:38:48.731Z,1.23
2022-09-15T10:41:28.715Z,1.50
2022-09-15T10:44:19.756Z,1.33
2022-09-15T10:46:53.955Z,1.30
2022-09-15T10:49:52.736Z,0.80
2022-09-15T10:52:47.869Z,1.10
2022-09-15T10:55:52.919Z,1.20
2022-09-15T10:58:25.470Z,1.40
2022-09-15T11:01:38.180Z,1.77
2022-09-15T11:04:32.388Z,1.23
2022-09-15T11:07:10.781Z,1.40
2022-09-15T11:09:49.847Z,0.70
2022-09-15T11:12:27.099Z,0.90
2022-09-15T11:15:18.971Z,0.90
2022-09-15T11:18:09.703Z,0.80
2022-09-15T11:21:06.776Z,1.00
2022-09-15T11:23:40.490Z,0.80
2022-09-15T11:26:13.996Z,0.83
2022-09-15T11:29:03.225Z,0.97
2022-09-15T11:31:43.891Z,0.87
2022-09-15T11:34:31.401Z,1.07
2022-09-15T11:37:12.293Z,1.20
2022-09-15T11:39:55.759Z,1.10
2022-09-15T11:43:00.194Z,1.30
2022-09-15T11:45:30.362Z,0.87
2022-09-15T11:48:03.699Z,0.80
2022-09-15T11:50:35.914Z,0.97
2022-09-15T11:53:24.262Z,1.30
2022-09-15T11:56:20.470Z,0.90
2022-09-15T11:59:11.956Z,1.20
2022-09-15T12:01:43.862Z,0.97
2022-09-15T12:04:22.280Z,1.30
2022-09-15T12:07:14.465Z,1.30
2022-09-15T12:09:41.494Z,0.97
2022-09-15T12:12:14.338Z,1.00
2022-09-15T12:14:46.640Z,1.20
2022-09-15T12:17:39.581Z,0.90
2022-09-15T12:20:17.179Z,1.10
2022-09-15T12:23:15.807Z,1.00
2022-09-15T12:26:00.257Z,1.03
2022-09-15T12:28:39.498Z,1.30
2022-09-15T12:31:25.454Z,0.93
2022-09-15T12:33:56.778Z,1.30
2022-09-15T12:36:38.369Z,0.97
2022-09-15T12:39:27.895Z,1.30
2022-09-15T12:42:05.264Z,1.20
2022-09-15T12:44:32.015Z,1.27
2022-09-15T12:47:00.402Z,1.00
2022-09-15T12:49:41.939Z,0.87
2022-09-15T12:52:10.125Z,0.77
2022-09-15T12:54:41.200Z,0.70
2022-09-15T12:57:20.705Z,1.00
2022-09-15T12:59:47.835Z,1.10
2022-09-15T13:02:47.684Z,1.00
2022-09-15T13:05:45.997Z,1.20
2022-09-15T13:08:23.549Z,1.10
2022-09-15T13:11:03.412Z,1.23
2022-09-15T13:13:48.292Z,1.10
2022-09-15T13:16:37.445Z,1.10
2022-09-15T13:19:46.452Z,1.37
2022-09-15T13:22:35.364Z,0.83
2022-09-15T13:25:11.234Z,1.13
2022-09-15T13:27:41.436Z,1.10
2022-09-15T13:30:32.549Z,0.97
2022-09-15T13:33:22.608Z,1.03
2022-09-15T13:35:58.672Z,1.40
2022-09-15T13:42:34.621Z,1.10
2022-09-15T13:45:19.496Z,1.00
2022-09-15T13:48:13.826Z,1.10
2022-09-15T13:50:47.118Z,1.03
2022-09-15T13:53:42.678Z,1.17
2022-09-15T13:56:16.068Z,1.40
2022-09-15T13:59:05.414Z,1.13
2022-09-15T14:01:34.927Z,1.37
2022-09-15T14:04:13.177Z,1.20
2022-09-15T14:06:43.865Z,0.90
2022-09-15T14:09:15.860Z,1.27
2022-09-15T14:11:45.987Z,1.67
2022-09-15T14:14:27.653Z,0.83
2022-09-15T14:16:56.409Z,1.17
2022-09-15T14:19:28.929Z,1.13
2022-09-15T14:21:58.511Z,1.47
2022-09-15T14:24:30.817Z,0.90
2022-09-15T14:27:01.496Z,1.50
2022-09-15T14:29:28.341Z,1.20
2022-09-15T14:32:00.999Z,1.20
2022-09-15T14:34:31.808Z,1.10
2022-09-15T14:37:06.898Z,0.97
2022-09-15T14:39:37.343Z,1.00
2022-09-15T14:42:22.386Z,1.10
2022-09-15T14:47:40.337Z,1.10
2022-09-15T14:50:20.139Z,1.33
2022-09-15T14:52:50.086Z,1.20
2022-09-15T14:55:24.809Z,1.13
2022-09-15T14:58:03.504Z,1.13
2022-09-15T15:00:37.951Z,1.43
2022-09-15T15:03:39.403Z,0.97
2022-09-15T15:06:32.984Z,0.97
2022-09-15T15:09:21.344Z,1.33
2022-09-15T15:11:52.823Z,1.37
2022-09-15T15:14:19.621Z,1.20
2022-09-15T15:17:30.387Z,1.27
2022-09-15T15:20:11.666Z,1.17
2022-09-15T15:22:39.735Z,1.40
2022-09-15T15:25:28.299Z,0.90
2022-09-15T15:27:56.781Z,1.10
2022-09-15T15:30:33.573Z,0.90
2022-09-15T15:33:06.725Z,0.80
2022-09-15T15:35:35.727Z,0.80
2022-09-15T15:38:12.358Z,1.03
2022-09-15T15:40:40.618Z,1.30
2022-09-15T15:43:21.126Z,1.00
2022-09-15T15:45:50.959Z,0.80
2022-09-15T15:48:17.902Z,0.80
2022-09-15T15:50:44.676Z,0.77
2022-09-15T15:53:11.362Z,1.07
2022-09-15T15:55:41.774Z,0.70
2022-09-15T15:58:12.656Z,0.90
2022-09-15T16:00:44.108Z,0.80
2022-09-15T16:03:11.805Z,0.80
2022-09-15T16:05:40.659Z,0.97
2022-09-15T16:08:31.221Z,0.77
2022-09-15T16:10:59.887Z,1.10
2022-09-15T16:13:26.651Z,0.93
2022-09-15T16:15:54.757Z,0.90
2022-09-15T16:18:21.487Z,0.80
2022-09-15T16:20:48.288Z,0.63
2022-09-15T16:23:17.830Z,0.70
2022-09-15T16:25:47.986Z,1.00
2022-09-15T16:28:15.523Z,0.60
2022-09-15T16:30:42.444Z,0.80
2022-09-15T16:33:16.578Z,0.80
2022-09-15T16:35:51.041Z,0.80
2022-09-15T16:38:19.751Z,1.17
2022-09-15T16:40:47.708Z,1.17
2022-09-15T16:43:17.697Z,0.80
2022-09-15T16:45:44.790Z,6.57
2022-09-15T16:48:12.180Z,3.90
2022-09-15T16:50:45.878Z,2.43
2022-09-15T16:53:19.889Z,1.27
2022-09-15T16:55:51.498Z,1.40
2022-09-15T16:58:20.215Z,0.90
2022-09-15T17:00:49.160Z,1.27
2022-09-15T17:03:18.283Z,0.97
2022-09-15T17:05:50.728Z,1.00
2022-09-15T17:08:19.740Z,0.90
2022-09-15T17:10:47.514Z,1.03
2022-09-15T17:13:21.184Z,0.90
2022-09-15T17:15:50.508Z,1.60
2022-09-15T17:18:17.384Z,1.20
2022-09-15T17:20:47.140Z,0.93
2022-09-15T17:23:24.479Z,1.30
2022-09-15T17:25:52.990Z,1.27
2022-09-15T17:28:24.711Z,0.90
2022-09-15T17:30:56.182Z,1.60
2022-09-15T17:33:23.191Z,0.80
2022-09-15T17:35:50.189Z,1.10
2022-09-15T17:38:20.208Z,0.90
2022-09-15T17:40:48.323Z,0.57
2022-09-15T17:43:20.634Z,0.80
2022-09-15T17:45:48.913Z,1.00
2022-09-15T17:48:16.098Z,1.07
2022-09-15T17:50:43.569Z,1.00
2022-09-15T17:53:22.413Z,0.60
2022-09-15T17:55:54.105Z,0.90
2022-09-15T17:58:21.948Z,1.07
2022-09-15T18:00:49.715Z,0.70
2022-09-15T18:03:28.882Z,1.20
2022-09-15T18:05:58.381Z,0.80
2022-09-15T18:08:25.857Z,1.17
2022-09-15T18:10:52.692Z,0.70
2022-09-15T18:13:22.333Z,0.73
2022-09-15T18:15:49.158Z,1.00
2022-09-15T18:18:21.562Z,0.63
2022-09-15T18:20:52.963Z,0.87
2022-09-15T18:23:24.429Z,1.00
2022-09-15T18:25:52.051Z,1.07
2022-09-15T18:28:19.574Z,1.20
2022-09-15T18:30:48.499Z,1.07
2022-09-15T18:33:23.947Z,0.90
2022-09-15T18:35:53.760Z,0.87
2022-09-15T18:38:21.860Z,1.00
2022-09-15T18:40:55.281Z,0.80
2022-09-15T18:43:23.556Z,1.50
2022-09-15T18:45:50.486Z,1.10
2022-09-15T18:48:17.341Z,0.83
2022-09-15T18:50:44.955Z,1.17
2022-09-15T18:53:12.414Z,0.93
2022-09-15T18:55:41.953Z,0.97
2022-09-15T18:58:09.202Z,0.87
2022-09-15T19:00:35.984Z,1.00
2022-09-15T19:03:05.233Z,1.20
2022-09-15T19:05:32.676Z,1.03
2022-09-15T19:07:59.439Z,0.80
2022-09-15T19:10:29.333Z,0.70
2022-09-15T19:12:56.095Z,1.10
2022-09-15T19:15:24.061Z,1.10
2022-09-15T19:17:51.194Z,1.07
2022-09-15T19:20:18.268Z,1.10
2022-09-15T19:22:46.010Z,1.10
2022-09-15T19:25:13.437Z,1.10
2022-09-15T19:27:40.428Z,0.83
2022-09-15T19:30:10.054Z,0.83
2022-09-15T19:32:38.196Z,1.00
2022-09-15T19:35:06.069Z,1.20
2022-09-15T19:37:37.334Z,0.90
2022-09-15T19:40:08.576Z,1.10
2022-09-15T19:42:36.336Z,0.80
2022-09-15T19:45:03.108Z,1.10
2022-09-15T19:47:30.132Z,0.93
2022-09-15T19:49:56.980Z,0.90
2022-09-15T19:52:24.026Z,0.83
2022-09-15T19:54:50.722Z,1.00
2022-09-15T19:57:17.443Z,1.00
2022-09-15T19:59:44.810Z,1.00
2022-09-15T20:02:12.099Z,0.90
2022-09-15T20:04:39.714Z,0.73
2022-09-15T20:07:06.588Z,1.00
2022-09-15T20:09:33.692Z,1.20
2022-09-15T20:12:03.439Z,0.80
2022-09-15T20:14:31.036Z,0.67
2022-09-15T20:17:00.982Z,0.40
2022-09-15T20:19:28.687Z,0.60
2022-09-15T20:21:55.603Z,1.00
2022-09-15T20:24:23.833Z,0.40
2022-09-15T20:26:50.962Z,0.70
2022-09-15T20:29:18.028Z,0.67
2022-09-15T20:31:44.923Z,0.73
2022-09-15T20:34:11.750Z,0.70
2022-09-15T20:36:39.822Z,0.60
2022-09-15T20:39:10.556Z,0.50
2022-09-15T20:41:37.802Z,0.67
2022-09-15T20:44:06.015Z,0.70
2022-09-15T20:46:33.487Z,0.70
2022-09-15T20:49:00.493Z,0.60
2022-09-15T20:51:31.490Z,0.70
2022-09-15T20:53:59.751Z,0.50
2022-09-15T20:56:28.509Z,0.50
2022-09-15T20:58:57.238Z,0.60
2022-09-15T21:01:26.659Z,0.80
2022-09-15T21:03:55.344Z,0.53
2022-09-15T21:06:25.741Z,0.80
2022-09-15T21:08:53.916Z,0.40
2022-09-15T21:11:21.684Z,0.60
2022-09-15T21:13:49.322Z,0.60
2022-09-15T21:16:21.288Z,0.53
2022-09-15T21:18:49.736Z,0.70
2022-09-15T21:21:26.498Z,0.60
2022-09-15T21:23:56.345Z,1.00
2022-09-15T21:26:57.110Z,0.70
2022-09-15T21:29:24.555Z,0.70
2022-09-15T21:31:51.352Z,0.90
2022-09-15T21:34:18.120Z,0.80
2022-09-15T21:36:45.084Z,0.73
2022-09-15T21:39:11.762Z,0.73
2022-09-15T21:41:38.608Z,0.80
2022-09-15T21:44:05.316Z,1.27
2022-09-15T21:46:32.076Z,1.20
2022-09-15T21:48:59.832Z,1.60
2022-09-15T21:51:28.832Z,1.73
2022-09-15T21:53:57.326Z,1.73
2022-09-15T21:56:25.638Z,1.73
2022-09-15T21:58:52.374Z,2.20
2022-09-15T22:01:21.896Z,1.53
2022-09-15T22:03:56.979Z,2.67
2022-09-15T22:06:30.219Z,2.07
2022-09-15T22:09:26.303Z,2.17
2022-09-15T22:11:53.020Z,2.20
2022-09-15T22:14:21.362Z,2.40
2022-09-15T22:16:48.110Z,2.30
2022-09-15T22:19:14.837Z,2.90
2022-09-15T22:21:42.021Z,2.63
2022-09-15T22:24:11.538Z,2.37
2022-09-15T22:26:38.997Z,2.47
2022-09-15T22:29:06.458Z,2.20
2022-09-15T22:31:33.529Z,2.63
2022-09-15T22:34:00.273Z,2.67
2022-09-15T22:36:30.493Z,2.77
2022-09-15T22:39:05.029Z,2.83
2022-09-15T22:41:37.666Z,2.40
2022-09-15T22:44:06.002Z,2.30
2022-09-15T22:46:32.936Z,2.80
2022-09-15T22:48:59.977Z,2.40
2022-09-15T22:51:26.918Z,2.83
2022-09-15T22:53:56.595Z,2.37
2022-09-15T22:56:23.729Z,2.20
2022-09-15T22:58:50.610Z,3.00
2022-09-15T23:01:19.874Z,2.60
2022-09-15T23:03:52.036Z,2.70
2022-09-15T23:06:19.522Z,2.33
2022-09-15T23:08:59.602Z,2.07
2022-09-15T23:11:28.716Z,2.23
2022-09-15T23:13:55.870Z,1.90
2022-09-15T23:16:24.313Z,2.53
2022-09-15T23:18:52.047Z,2.33
2022-09-15T23:21:19.079Z,2.00
2022-09-15T23:23:48.872Z,2.27
2022-09-15T23:26:17.827Z,2.20
2022-09-15T23:28:44.510Z,2.10
2022-09-15T23:31:12.963Z,2.40
2022-09-15T23:33:40.542Z,2.07
2022-09-15T23:36:10.587Z,2.23
2022-09-15T23:38:41.949Z,2.60
2022-09-15T23:41:09.787Z,2.33
2022-09-15T23:43:37.019Z,2.43
2022-09-15T23:46:04.629Z,2.63
2022-09-15T23:48:32.462Z,2.70
2022-09-15T23:50:59.479Z,2.27
2022-09-15T23:53:26.510Z,2.33
2022-09-15T23:55:53.205Z,3.00
2022-09-15T23:58:20.202Z,2.90
